首页
METAR-TAF:

METAR-TAF

机场 :

阿什哈巴德国际机场

阿什哈巴德, 土库曼斯坦

纬度: 37-59N, 经度: 058-22E, 海拔: 211米

当前天气观测

该预报发布于37分钟前的16:00 UTC
静风
温度 8°C
湿度 81%
气压 1021 hPa
能见度10公里或以上
少量云层高于4100英尺, 积雨云.
阴天层高于4100英尺

METAR: UTAA 121600Z 00000KT 9999 FEW041CB OVC041 08/05 Q1021 R88/70D NOSIG

时间: 21:37 (16:37 UTC)

预报

该预报发布于6小时和2分钟前的10:35 UTC
预报有效从12日的 12点(UTC)到 13日的 12点(UTC)
风速14节,风向西北
能見度: 6000
散云层高于1000英尺
散云层高于2000英尺, 积雨云.
短暂存在
从 12日的 12点(UTC)到 12日的 18点(UTC)
风速16节,风向西转西北
能見度: 4000
多云层高于1000英尺
小雨
短暂存在
从 12日的 18点(UTC)到 13日的 03点(UTC)
能見度: 1500
阴天层高于300英尺
轻雾
成为
从 13日的 03点(UTC)到 13日的 05点(UTC)
风速14节,风向东北

TAF: UTAA 121035Z 1212/1312 32014KT 6000 SCT010 SCT020CB TEMPO 1212/1218 29016KT 4000 -RA BKN010 TEMPO 1218/1303 1500 BR OVC003 BECMG 1303/1305 04014KT

超过4000个机场的气象观测和天气预报(METAR&TAF报告)。

可查询的气象台以黄色和红色小点在地图上表示。

将鼠标移到小点上方,可查看气象台名称。

然后点击查看天气观测和预报。

如需切换地图:点击带黑十字的绿色按钮放大地图;点击带横线的绿色按钮缩小地图;或者点击绿色箭头查看邻近地区的地图。


METAR-TAF: